createdAt,value
2017-08-23T00:00:56.013Z,-2.1
2017-08-23T00:01:55.094Z,-2.1
2017-08-23T00:02:54.780Z,-2.1
2017-08-23T00:03:53.869Z,-2.2
2017-08-23T00:04:53.061Z,-2
2017-08-23T00:05:52.253Z,-2
2017-08-23T00:06:51.471Z,-2
2017-08-23T00:07:50.537Z,-2
2017-08-23T00:08:49.614Z,-2
2017-08-23T00:09:48.978Z,-2
2017-08-23T00:10:48.167Z,-2.2
2017-08-23T00:11:47.371Z,-2.2
2017-08-23T00:12:46.579Z,-2.2
2017-08-23T00:13:45.766Z,-2.2
2017-08-23T00:14:44.725Z,-2.1
2017-08-23T00:15:43.949Z,-2.1
2017-08-23T00:17:42.291Z,-2.1
2017-08-23T00:18:41.496Z,-2
2017-08-23T00:19:40.574Z,-1.9
2017-08-23T00:20:40.266Z,-1.9
2017-08-23T00:21:39.345Z,-1.9
2017-08-23T00:22:38.538Z,-1.9
2017-08-23T00:23:08.932Z,-1.9
2017-08-23T00:23:39.437Z,-1.9
2017-08-23T00:24:09.832Z,-1.9
2017-08-23T00:25:36.207Z,-1.9
2017-08-23T00:26:35.276Z,-1.9
2017-08-23T00:27:34.340Z,-1.9
2017-08-23T00:28:33.538Z,-1.9
2017-08-23T00:30:32.118Z,-1.9
2017-08-23T00:31:31.316Z,-1.8
2017-08-23T00:32:30.507Z,-1.8
2017-08-23T00:33:29.708Z,-1.7
2017-08-23T00:34:28.896Z,-1.7
2017-08-23T00:35:28.092Z,-1.8
2017-08-23T00:36:27.285Z,-1.8
2017-08-23T00:37:26.485Z,-1.7
2017-08-23T00:38:25.679Z,-1.9
2017-08-23T00:39:24.758Z,-2
2017-08-23T00:40:23.948Z,-2
2017-08-23T00:41:23.151Z,-1.9
2017-08-23T00:42:21.982Z,-1.9
2017-08-23T00:43:21.664Z,-1.9
2017-08-23T00:44:20.739Z,-1.9
2017-08-23T00:45:19.935Z,-2
2017-08-23T00:46:19.130Z,-2
2017-08-23T00:48:17.205Z,-1.9
2017-08-23T00:49:16.426Z,-1.9
2017-08-23T00:50:15.511Z,-1.9
2017-08-23T00:51:14.702Z,-1.9
2017-08-23T00:52:15.201Z,-2
2017-08-23T00:53:13.157Z,-1.9
2017-08-23T00:54:12.104Z,-1.9
2017-08-23T00:55:11.676Z,-1.9
2017-08-23T00:56:10.758Z,-1.9
2017-08-23T00:58:08.871Z,-2
2017-08-23T01:00:07.375Z,-1.9
2017-08-23T01:01:06.469Z,-1.9
2017-08-23T01:02:06.044Z,-1.9
2017-08-23T01:03:05.125Z,-1.9
2017-08-23T01:04:04.318Z,-1.9
2017-08-23T01:05:03.401Z,-1.9
2017-08-23T01:06:02.487Z,-1.9
2017-08-23T01:07:01.685Z,-1.7
2017-08-23T01:08:00.885Z,-1.7
2017-08-23T01:09:00.068Z,-1.7
2017-08-23T01:09:59.138Z,-1.6
2017-08-23T01:10:58.833Z,-1.6
2017-08-23T01:12:56.920Z,-1.5
2017-08-23T01:13:56.107Z,-1.6
2017-08-23T01:14:55.290Z,-1.7
2017-08-23T01:15:54.236Z,-1.7
2017-08-23T01:16:53.956Z,-1.6
2017-08-23T01:17:24.223Z,-1.6
2017-08-23T01:18:51.871Z,-1.7
2017-08-23T01:19:50.828Z,-1.7
2017-08-23T01:20:50.424Z,-1.7
2017-08-23T01:21:49.312Z,-1.7
2017-08-23T01:22:48.903Z,-1.7
2017-08-23T01:23:48.107Z,-1.7
2017-08-23T01:24:47.326Z,-1.7
2017-08-23T01:25:46.529Z,-1.7
2017-08-23T01:26:45.483Z,-1.7
2017-08-23T01:27:44.436Z,-1.5
2017-08-23T01:28:44.136Z,-1.5
2017-08-23T01:29:43.211Z,-1.5
2017-08-23T01:30:42.206Z,-1.5
2017-08-23T01:31:41.287Z,-1.5
2017-08-23T01:32:40.247Z,-1.5
2017-08-23T01:33:39.706Z,-1.4
2017-08-23T01:34:38.893Z,-1.4
2017-08-23T01:35:37.965Z,-1.4
2017-08-23T01:36:37.428Z,-1.3
2017-08-23T01:37:36.502Z,-1.4
2017-08-23T01:38:35.712Z,-1.4
2017-08-23T01:39:34.910Z,-1.4
2017-08-23T01:40:33.981Z,-1.4
2017-08-23T01:41:33.177Z,-1.3
2017-08-23T01:42:32.380Z,-1.3
2017-08-23T01:43:31.450Z,-1.4
2017-08-23T01:44:30.666Z,-1.5
2017-08-23T01:45:29.861Z,-1.5
2017-08-23T01:46:29.072Z,-1.6
2017-08-23T01:47:28.267Z,-1.6
2017-08-23T01:47:58.419Z,-1.6
2017-08-23T01:48:29.431Z,-1.6
2017-08-23T01:48:59.946Z,-1.6
2017-08-23T01:49:30.454Z,-1.6
2017-08-23T01:50:00.833Z,-1.6
2017-08-23T01:51:25.188Z,-1.6
2017-08-23T01:52:24.374Z,-1.6
2017-08-23T01:53:24.134Z,-1.6
2017-08-23T01:54:22.826Z,-1.6
2017-08-23T01:55:22.023Z,-1.7
2017-08-23T01:56:21.222Z,-1.7
2017-08-23T01:57:20.295Z,-1.6
2017-08-23T01:58:19.368Z,-1.5
2017-08-23T01:59:18.559Z,-1.4
2017-08-23T02:00:17.740Z,-1.3
2017-08-23T02:01:16.944Z,-1.4
2017-08-23T02:02:16.036Z,-1.3
2017-08-23T02:03:15.239Z,-1.3
2017-08-23T02:04:14.195Z,-1.3
2017-08-23T02:05:13.146Z,-1.2
2017-08-23T02:06:12.614Z,-1.2
2017-08-23T02:07:11.804Z,-1.3
2017-08-23T02:08:10.877Z,-1.3
2017-08-23T02:09:10.061Z,-1.3
2017-08-23T02:10:09.258Z,-1.3
2017-08-23T02:11:08.451Z,-1.3
2017-08-23T02:12:07.520Z,-1.2
2017-08-23T02:13:07.220Z,-1.2
2017-08-23T02:14:06.424Z,-1.2
2017-08-23T02:15:05.619Z,-1.3
2017-08-23T02:16:04.307Z,-1.2
2017-08-23T02:17:03.511Z,-1.3
2017-08-23T02:18:02.603Z,-1.3
2017-08-23T02:19:02.297Z,-1.4
2017-08-23T02:20:01.506Z,-1.3
2017-08-23T02:21:00.207Z,-1.3
2017-08-23T02:21:59.402Z,-1.3
2017-08-23T02:22:58.592Z,-1.3
2017-08-23T02:23:57.668Z,-1.3
2017-08-23T02:24:57.253Z,-1.4
2017-08-23T02:25:56.456Z,-1.4
2017-08-23T02:26:55.661Z,-1.3
2017-08-23T02:27:54.873Z,-1.4
2017-08-23T02:28:54.075Z,-1.4
2017-08-23T02:29:53.280Z,-1.4
2017-08-23T02:30:52.498Z,-1.3
2017-08-23T02:31:50.959Z,-1.4
2017-08-23T02:32:50.945Z,-1.3
2017-08-23T02:33:49.529Z,-1.3
2017-08-23T02:34:48.721Z,-1.3
2017-08-23T02:35:47.793Z,-1.3
2017-08-23T02:36:47.477Z,-1.3
2017-08-23T02:37:46.678Z,-1.2
2017-08-23T02:38:45.872Z,-1.2
2017-08-23T02:39:44.828Z,-1.1
2017-08-23T02:40:15.338Z,-1.1
2017-08-23T02:40:45.713Z,-1.1
2017-08-23T02:41:43.045Z,-1.1
2017-08-23T02:42:42.146Z,-1.1
2017-08-23T02:43:41.597Z,-1.1
2017-08-23T02:44:40.779Z,-1.1
2017-08-23T02:45:39.881Z,-1
2017-08-23T02:46:39.075Z,-1
2017-08-23T02:47:38.152Z,-1
2017-08-23T02:48:37.351Z,-1
2017-08-23T02:49:36.413Z,-0.9
2017-08-23T02:50:35.484Z,-0.9
2017-08-23T02:51:35.181Z,-0.8
2017-08-23T02:52:34.360Z,-1
2017-08-23T02:53:33.431Z,-0.9
2017-08-23T02:54:32.521Z,-0.9
2017-08-23T02:55:31.707Z,-0.9
2017-08-23T02:56:30.780Z,-0.9
2017-08-23T02:57:29.959Z,-0.9
2017-08-23T02:58:29.034Z,-1
2017-08-23T02:59:28.218Z,-1.1
2017-08-23T03:00:27.395Z,-1.1
2017-08-23T03:01:26.587Z,-1
2017-08-23T03:02:25.780Z,-1
2017-08-23T03:03:24.966Z,-1.1
2017-08-23T03:04:24.040Z,-1.1
2017-08-23T03:05:23.210Z,-1.1
2017-08-23T03:06:22.778Z,-1.2
2017-08-23T03:07:21.620Z,-1.2
2017-08-23T03:08:20.784Z,-1.1
2017-08-23T03:09:19.980Z,-1.1
2017-08-23T03:10:19.178Z,-1.2
2017-08-23T03:11:18.622Z,-1.2
2017-08-23T03:12:17.806Z,-1.2
2017-08-23T03:13:16.756Z,-1.2
2017-08-23T03:14:15.950Z,-1.1
2017-08-23T03:15:15.143Z,-1
2017-08-23T03:16:14.206Z,-1
2017-08-23T03:17:13.792Z,-0.9
2017-08-23T03:18:12.870Z,-0.9
2017-08-23T03:19:12.053Z,-0.9
2017-08-23T03:20:11.110Z,-0.9
2017-08-23T03:21:10.060Z,-0.9
2017-08-23T03:22:09.633Z,-0.9
2017-08-23T03:23:08.820Z,-0.9
2017-08-23T03:24:07.901Z,-0.9
2017-08-23T03:25:06.970Z,-0.9
2017-08-23T03:26:06.029Z,-0.9
2017-08-23T03:27:04.982Z,-0.9
2017-08-23T03:28:04.540Z,-0.9
2017-08-23T03:29:03.716Z,-0.9
2017-08-23T03:30:02.931Z,-0.9
2017-08-23T03:31:02.138Z,-1
2017-08-23T03:32:01.328Z,-1
2017-08-23T03:33:00.288Z,-1
2017-08-23T03:33:59.469Z,-1
2017-08-23T03:34:58.655Z,-1.1
2017-08-23T03:35:57.845Z,-1.1
2017-08-23T03:36:57.029Z,-1.1
2017-08-23T03:37:56.090Z,-1.1
2017-08-23T03:38:55.292Z,-1.1
2017-08-23T03:39:54.232Z,-1.1
2017-08-23T03:40:53.808Z,-1.1
2017-08-23T03:41:52.989Z,-1.3
2017-08-23T03:43:50.948Z,-1.3
2017-08-23T03:44:50.633Z,-1.3
2017-08-23T03:45:49.821Z,-1.3
2017-08-23T03:46:49.011Z,-1.3
2017-08-23T03:47:48.198Z,-1.2
2017-08-23T03:48:47.387Z,-1.3
2017-08-23T03:49:45.951Z,-1.3
2017-08-23T03:50:45.547Z,-1.4
2017-08-23T03:51:44.491Z,-1.3
2017-08-23T03:52:43.434Z,-1.3
2017-08-23T03:53:43.130Z,-1.2
2017-08-23T03:54:42.322Z,-1.2
2017-08-23T03:55:41.400Z,-1.1
2017-08-23T03:56:40.470Z,-1.1
2017-08-23T03:57:39.647Z,-1.1
2017-08-23T03:58:38.710Z,-1.1
2017-08-23T03:59:37.894Z,-1.1
2017-08-23T04:00:36.964Z,-1.2
2017-08-23T04:01:35.800Z,-1.1
2017-08-23T04:02:35.126Z,-1.1
2017-08-23T04:03:34.704Z,-1.1
2017-08-23T04:04:33.778Z,-1.1
2017-08-23T04:05:32.954Z,-1.1
2017-08-23T04:06:32.132Z,-1
2017-08-23T04:07:31.202Z,-1.1
2017-08-23T04:08:30.392Z,-1
2017-08-23T04:09:29.574Z,-1
2017-08-23T04:10:28.778Z,-1
2017-08-23T04:11:27.862Z,-1
2017-08-23T04:12:27.041Z,-1
2017-08-23T04:13:26.234Z,-1
2017-08-23T04:14:25.416Z,-1
2017-08-23T04:15:24.596Z,-1
2017-08-23T04:16:23.554Z,-1.1
2017-08-23T04:17:23.133Z,-1.1
2017-08-23T04:18:22.329Z,-1
2017-08-23T04:19:21.286Z,-1.1
2017-08-23T04:20:20.490Z,-1
2017-08-23T04:21:19.670Z,-1
2017-08-23T04:22:18.746Z,-0.9
2017-08-23T04:23:17.808Z,-0.9
2017-08-23T04:24:17.369Z,-0.9
2017-08-23T04:25:16.547Z,-1
2017-08-23T04:26:15.614Z,-1
2017-08-23T04:27:14.692Z,-0.9
2017-08-23T04:28:13.771Z,-1
2017-08-23T04:29:13.513Z,-1
2017-08-23T04:30:12.209Z,-1
2017-08-23T04:31:11.384Z,-1
2017-08-23T04:32:09.980Z,-1
2017-08-23T04:33:09.548Z,-1
2017-08-23T04:34:08.745Z,-1.1
2017-08-23T04:35:07.828Z,-1.1
2017-08-23T04:36:07.286Z,-1
2017-08-23T04:38:05.741Z,-1
2017-08-23T04:39:04.939Z,-1
2017-08-23T04:40:03.770Z,-0.9
2017-08-23T04:41:02.975Z,-0.9
2017-08-23T04:42:02.547Z,-0.9
2017-08-23T04:43:01.504Z,-1
2017-08-23T04:44:00.694Z,-1
2017-08-23T04:44:59.763Z,-1
2017-08-23T04:45:58.936Z,-1.1
2017-08-23T04:46:57.994Z,-1.1
2017-08-23T04:47:57.068Z,-1.2
2017-08-23T04:48:56.255Z,-1.2
2017-08-23T04:50:54.831Z,-1.2
2017-08-23T04:51:53.897Z,-1.3
2017-08-23T04:52:53.075Z,-1.4
2017-08-23T04:53:52.270Z,-1.4
2017-08-23T04:54:51.339Z,-1.6
2017-08-23T04:55:50.409Z,-1.6
2017-08-23T04:56:50.107Z,-1.7
2017-08-23T04:57:49.088Z,-1.7
2017-08-23T04:58:48.276Z,-1.8
2017-08-23T04:59:47.455Z,-1.9
2017-08-23T05:00:46.630Z,-1.9
2017-08-23T05:01:45.818Z,-2
2017-08-23T05:02:44.772Z,-2.1
2017-08-23T05:03:43.854Z,-2.2
2017-08-23T05:04:43.435Z,-2.2
2017-08-23T05:05:42.495Z,-2.2
2017-08-23T05:07:40.567Z,-2.4
2017-08-23T05:08:40.131Z,-2.3
2017-08-23T05:09:39.319Z,-2.5
2017-08-23T05:10:37.884Z,-2.4
2017-08-23T05:11:37.337Z,-2.5
2017-08-23T05:12:36.524Z,-2.5
2017-08-23T05:13:35.711Z,-2.5
2017-08-23T05:14:34.649Z,-2.5
2017-08-23T05:15:34.235Z,-2.5
2017-08-23T05:16:33.451Z,-2.6
2017-08-23T05:17:32.632Z,-2.6
2017-08-23T05:18:31.699Z,-2.5
2017-08-23T05:19:30.881Z,-2.6
2017-08-23T05:20:30.071Z,-2.5
2017-08-23T05:21:29.265Z,-2.4
2017-08-23T05:22:28.350Z,-2.5
2017-08-23T05:23:27.420Z,-2.5
2017-08-23T05:24:26.599Z,-2.5
2017-08-23T05:25:25.794Z,-2.5
2017-08-23T05:26:24.979Z,-2.5
2017-08-23T05:27:24.169Z,-2.6
2017-08-23T05:28:23.348Z,-2.7
2017-08-23T05:29:22.422Z,-2.7
2017-08-23T05:30:21.609Z,-2.8
2017-08-23T05:31:20.677Z,-2.8
2017-08-23T05:32:19.862Z,-3.1
2017-08-23T05:33:19.056Z,-3.2
2017-08-23T05:34:18.118Z,-3.4
2017-08-23T05:34:48.544Z,-3.4
2017-08-23T05:35:19.052Z,-3.4
2017-08-23T05:35:49.429Z,-3.4
2017-08-23T05:36:19.813Z,-3.6
2017-08-23T05:36:50.081Z,-3.6
2017-08-23T05:37:20.583Z,-3.8
2017-08-23T05:38:15.135Z,-3.8
2017-08-23T05:39:14.317Z,-3.9
2017-08-23T05:40:13.268Z,-4
2017-08-23T05:41:12.448Z,-4.2
2017-08-23T05:42:11.405Z,-4.3
2017-08-23T05:43:10.974Z,-4.2
2017-08-23T05:44:10.051Z,-4.2
2017-08-23T05:45:09.133Z,-4.3
2017-08-23T05:47:07.715Z,-4.4
2017-08-23T05:48:06.668Z,-4.4
2017-08-23T05:49:05.865Z,-4.4
2017-08-23T05:50:04.690Z,-4.4
2017-08-23T05:51:04.137Z,-4.5
2017-08-23T05:52:03.211Z,-4.6
2017-08-23T05:53:02.795Z,-4.6
2017-08-23T05:54:01.880Z,-4.7
2017-08-23T05:55:00.837Z,-4.8
2017-08-23T05:55:59.894Z,-4.9
2017-08-23T05:56:58.963Z,-4.9
2017-08-23T05:57:58.662Z,-4.9
2017-08-23T05:58:57.846Z,-4.9
2017-08-23T05:59:56.673Z,-4.9
2017-08-23T06:00:55.736Z,-4.8
2017-08-23T06:01:55.307Z,-5
2017-08-23T06:02:54.491Z,-5.1
2017-08-23T06:03:53.677Z,-5
2017-08-23T06:04:52.864Z,-5
2017-08-23T06:05:52.056Z,-5.1
2017-08-23T06:06:51.121Z,-5.1
2017-08-23T06:07:50.309Z,-5.1
2017-08-23T06:08:49.380Z,-5
2017-08-23T06:09:48.580Z,-5.1
2017-08-23T06:10:47.759Z,-5.2
2017-08-23T06:11:46.938Z,-5.2
2017-08-23T06:12:46.135Z,-5.4
2017-08-23T06:13:45.320Z,-5.4
2017-08-23T06:15:43.895Z,-5.6
2017-08-23T06:16:43.091Z,-5.6
2017-08-23T06:17:41.769Z,-5.5
2017-08-23T06:18:40.976Z,-5.6
2017-08-23T06:19:40.166Z,-5.7
2017-08-23T06:20:39.223Z,-5.6
2017-08-23T06:21:38.922Z,-5.6
2017-08-23T06:22:37.988Z,-5.6
2017-08-23T06:23:37.048Z,-5.6
2017-08-23T06:24:36.006Z,-5.8
2017-08-23T06:25:35.695Z,-5.9
2017-08-23T06:26:34.636Z,-5.8
2017-08-23T06:27:33.826Z,-5.9
2017-08-23T06:28:32.998Z,-6
2017-08-23T06:29:32.062Z,-6
2017-08-23T06:30:31.132Z,-5.8
2017-08-23T06:31:30.817Z,-5.7
2017-08-23T06:32:29.893Z,-5.7
2017-08-23T06:33:29.079Z,-5.8
2017-08-23T06:34:28.147Z,-5.8
2017-08-23T06:35:27.225Z,-5.7
2017-08-23T06:36:26.423Z,-5.8
2017-08-23T06:37:25.373Z,-5.6
2017-08-23T06:38:25.073Z,-5.8
2017-08-23T06:40:23.155Z,-5.7
2017-08-23T06:42:21.727Z,-5.8
2017-08-23T06:43:20.802Z,-5.7
2017-08-23T06:44:19.981Z,-5.6
2017-08-23T06:45:19.195Z,-5.8
2017-08-23T06:46:18.379Z,-5.9
2017-08-23T06:47:17.572Z,-6.2
2017-08-23T06:48:16.774Z,-6.3
2017-08-23T06:49:15.860Z,-6.2
2017-08-23T06:50:14.934Z,-6.2
2017-08-23T06:52:13.402Z,-6.2
2017-08-23T06:53:12.590Z,-6.3
2017-08-23T06:54:11.668Z,-6.1
2017-08-23T06:55:11.378Z,-6.1
2017-08-23T06:56:10.456Z,-5.8
2017-08-23T06:57:09.655Z,-5.8
2017-08-23T06:58:08.623Z,-5.8
2017-08-23T06:59:07.699Z,-5.8
2017-08-23T07:00:06.618Z,-5.7
2017-08-23T07:01:06.072Z,-5.8
2017-08-23T07:02:05.531Z,-6
2017-08-23T07:03:04.607Z,-6.1
2017-08-23T07:04:03.678Z,-6.3
2017-08-23T07:05:02.756Z,-6.1
2017-08-23T07:06:02.448Z,-6.1
2017-08-23T07:07:01.397Z,-6.1
2017-08-23T07:08:00.588Z,-6.1
2017-08-23T07:08:59.531Z,-6
2017-08-23T07:09:59.122Z,-5.8
2017-08-23T07:10:58.196Z,-5.9
2017-08-23T07:11:57.262Z,-5.8
2017-08-23T07:12:56.464Z,-5.7
2017-08-23T07:13:55.422Z,-5.7
2017-08-23T07:14:55.100Z,-5.8
2017-08-23T07:15:54.304Z,-5.8
2017-08-23T07:16:53.260Z,-5.9
2017-08-23T07:17:52.835Z,-6.1
2017-08-23T07:18:52.033Z,-6.1
2017-08-23T07:19:51.224Z,-5.8
2017-08-23T07:21:49.171Z,-5.8
2017-08-23T07:22:19.672Z,-5.8
2017-08-23T07:23:48.045Z,-6
2017-08-23T07:24:47.225Z,-6.2
2017-08-23T07:25:46.425Z,-6.1
2017-08-23T07:27:45.556Z,-6.1
2017-08-23T07:28:43.620Z,-6.2
2017-08-23T07:29:43.435Z,-6.2
2017-08-23T07:30:42.507Z,-6.2
2017-08-23T07:31:41.691Z,-6.3
2017-08-23T07:32:40.874Z,-6.3
2017-08-23T07:33:40.060Z,-6.1
2017-08-23T07:34:39.282Z,-6.2
2017-08-23T07:35:38.361Z,-6.2
2017-08-23T07:36:37.542Z,-6.1
2017-08-23T07:37:36.498Z,-6.1
2017-08-23T07:38:36.075Z,-6
2017-08-23T07:39:35.142Z,-5.8
2017-08-23T07:40:34.351Z,-5.8
2017-08-23T07:41:33.415Z,-5.7
2017-08-23T07:43:32.247Z,-5.6
2017-08-23T07:44:31.197Z,-6
2017-08-23T07:45:30.780Z,-6
2017-08-23T07:47:28.859Z,-6.1
2017-08-23T07:48:28.326Z,-6.2
2017-08-23T07:49:27.514Z,-6
2017-08-23T07:50:26.706Z,-6
2017-08-23T07:51:25.566Z,-6.1
2017-08-23T07:52:25.258Z,-6.2
2017-08-23T07:53:24.431Z,-6.3
2017-08-23T07:54:23.623Z,-5.5
2017-08-23T07:55:22.809Z,-5.1
2017-08-23T07:56:22.003Z,-5.3
2017-08-23T07:57:21.072Z,-5.2
2017-08-23T07:58:20.248Z,-5.4
2017-08-23T07:59:19.720Z,-5.4
2017-08-23T08:00:18.913Z,-5.3
2017-08-23T08:01:17.988Z,-5.5
2017-08-23T08:02:16.938Z,-5.6
2017-08-23T08:03:16.644Z,-5.2
2017-08-23T08:04:15.697Z,-5.4
2017-08-23T08:05:14.911Z,-5.6
2017-08-23T08:06:14.092Z,-5.7
2017-08-23T08:07:13.791Z,-5.6
2017-08-23T08:08:12.865Z,-5.5
2017-08-23T08:09:11.935Z,-5.5
2017-08-23T08:10:11.117Z,-5.7
2017-08-23T08:12:09.582Z,-5.7
2017-08-23T08:13:08.913Z,-5.8
2017-08-23T08:14:07.991Z,-5.8
2017-08-23T08:15:06.825Z,-5.6
2017-08-23T08:16:06.399Z,-5.6
2017-08-23T08:17:06.012Z,-5.6
2017-08-23T08:18:05.202Z,-5.7
2017-08-23T08:19:04.274Z,-5.8
2017-08-23T08:21:02.856Z,-5.9
2017-08-23T08:22:01.813Z,-5.9
2017-08-23T08:23:01.369Z,-6
2017-08-23T08:24:00.565Z,-5.9
2017-08-23T08:24:59.525Z,-5.9
2017-08-23T08:25:59.208Z,-5.7
2017-08-23T08:26:58.296Z,-5.7
2017-08-23T08:27:57.361Z,-5.4
2017-08-23T08:28:56.314Z,-5.5
2017-08-23T08:29:55.764Z,-5.5
2017-08-23T08:30:55.457Z,-5.4
2017-08-23T08:31:54.542Z,-5.4
2017-08-23T08:32:53.740Z,-5.4
2017-08-23T08:33:52.914Z,-5.3
2017-08-23T08:34:52.097Z,-5.3
2017-08-23T08:35:51.303Z,-5.3
2017-08-23T08:36:50.142Z,-5.3
2017-08-23T08:37:49.729Z,-5.2
2017-08-23T08:38:49.304Z,-5.2
2017-08-23T08:39:48.502Z,-5.5
2017-08-23T08:40:47.697Z,-5.2
2017-08-23T08:41:46.769Z,-5.2
2017-08-23T08:42:46.449Z,-5
2017-08-23T08:43:45.635Z,-4.8
2017-08-23T08:44:44.578Z,-4.7
2017-08-23T08:45:43.759Z,-4.9
2017-08-23T08:46:43.784Z,-5.1
2017-08-23T08:47:42.224Z,-5.1
2017-08-23T08:48:41.906Z,-5.2
2017-08-23T08:49:40.979Z,-5.2
2017-08-23T08:50:40.072Z,-5.3
2017-08-23T08:51:39.755Z,-5.2
2017-08-23T08:52:38.820Z,-5.2
2017-08-23T08:53:38.006Z,-5
2017-08-23T08:54:37.199Z,-5
2017-08-23T08:55:36.274Z,-5
2017-08-23T08:56:35.661Z,-5
2017-08-23T08:57:34.726Z,-4.8
2017-08-23T08:59:33.576Z,-4.9
2017-08-23T09:00:32.759Z,-5.1
2017-08-23T09:01:31.711Z,-5.1
2017-08-23T09:02:31.166Z,-5.2
2017-08-23T09:03:30.754Z,-5.1
2017-08-23T09:05:29.099Z,-5
2017-08-23T09:06:28.673Z,-4.9
2017-08-23T09:07:27.508Z,-4.9
2017-08-23T09:08:27.078Z,-5.2
2017-08-23T09:09:26.278Z,-4.7
2017-08-23T09:10:25.471Z,-4.4
2017-08-23T09:11:24.671Z,-4.3
2017-08-23T09:12:23.879Z,-4.3
2017-08-23T09:13:22.829Z,-4.5
2017-08-23T09:14:22.402Z,-4.6
2017-08-23T09:15:22.106Z,-4.9
2017-08-23T09:16:21.293Z,-4.4
2017-08-23T09:17:20.243Z,-4.3
2017-08-23T09:18:19.519Z,-4
2017-08-23T09:19:18.964Z,-4
2017-08-23T09:20:17.796Z,-4.1
2017-08-23T09:21:17.278Z,-4
2017-08-23T09:22:16.860Z,-4
2017-08-23T09:23:15.811Z,-4
2017-08-23T09:24:15.390Z,-4
2017-08-23T09:25:14.483Z,-3.7
2017-08-23T09:26:13.923Z,-3.9
2017-08-23T09:27:13.105Z,-4.1
2017-08-23T09:28:12.285Z,-4.2
2017-08-23T09:29:11.975Z,-4.2
2017-08-23T09:30:10.908Z,-4.1
2017-08-23T09:31:09.977Z,-4.2
2017-08-23T09:32:09.558Z,-4.2
2017-08-23T09:33:08.753Z,-4.3
2017-08-23T09:34:07.713Z,-4.2
2017-08-23T09:35:07.440Z,-4
2017-08-23T09:36:06.515Z,-3.9
2017-08-23T09:37:05.965Z,-3.8
2017-08-23T09:38:05.462Z,-3.9
2017-08-23T09:38:35.942Z,-3.9
2017-08-23T09:39:06.325Z,-3.8
2017-08-23T09:40:03.661Z,-3.8
2017-08-23T09:41:03.365Z,-3.7
2017-08-23T09:42:02.432Z,-3.7
2017-08-23T09:43:01.625Z,-3.6
2017-08-23T09:44:00.700Z,-3.1
2017-08-23T09:45:00.272Z,-2.8
2017-08-23T09:45:59.347Z,-2.6
2017-08-23T09:47:58.432Z,-2.5
2017-08-23T09:48:57.489Z,-2.4
2017-08-23T09:49:56.555Z,-2.3
2017-08-23T09:50:56.240Z,-2.3
2017-08-23T09:51:55.184Z,-2.4
2017-08-23T09:52:54.866Z,-2.4
2017-08-23T09:53:53.820Z,-2.2
2017-08-23T09:54:52.887Z,-2.1
2017-08-23T09:55:52.472Z,-2.2
2017-08-23T09:56:51.664Z,-2.2
2017-08-23T09:57:51.238Z,-2.2
2017-08-23T09:58:50.175Z,-2.1
2017-08-23T09:59:49.876Z,-2.1
2017-08-23T10:00:49.056Z,-2.2
2017-08-23T10:01:48.126Z,-2
2017-08-23T10:02:47.716Z,-1.7
2017-08-23T10:03:46.802Z,-1.6
2017-08-23T10:04:45.652Z,-1.7
2017-08-23T10:05:45.345Z,-1.7
2017-08-23T10:06:44.908Z,-1.6
2017-08-23T10:07:43.983Z,-1.7
2017-08-23T10:08:43.050Z,-1.8
2017-08-23T10:09:42.612Z,-1.7
2017-08-23T10:10:41.678Z,-1.6
2017-08-23T10:11:41.142Z,-1.6
2017-08-23T10:12:40.601Z,-1.5
2017-08-23T10:13:39.800Z,-1.5
2017-08-23T10:14:38.738Z,-1.4
2017-08-23T10:15:38.306Z,-1.4
2017-08-23T10:16:37.896Z,-1.3
2017-08-23T10:17:37.071Z,-1.3
2017-08-23T10:18:36.415Z,-1.3
2017-08-23T10:19:35.474Z,-1.4
2017-08-23T10:20:34.931Z,-1.4
2017-08-23T10:21:34.039Z,-1.4
2017-08-23T10:22:33.631Z,-1.4
2017-08-23T10:23:32.594Z,-1.3
2017-08-23T10:24:32.043Z,-1.3
2017-08-23T10:25:31.523Z,-1.3
2017-08-23T10:26:30.469Z,-1.3
2017-08-23T10:27:29.937Z,-1.4
2017-08-23T10:28:29.498Z,-1.3
2017-08-23T10:29:28.565Z,-1.2
2017-08-23T10:30:28.269Z,-1.3
2017-08-23T10:32:26.722Z,-1.1
2017-08-23T10:33:25.913Z,-1.1
2017-08-23T10:34:24.861Z,-1.1
2017-08-23T10:35:24.437Z,-1.2
2017-08-23T10:36:24.120Z,-1.1
2017-08-23T10:37:23.177Z,-1.3
2017-08-23T10:38:22.269Z,-1.3
2017-08-23T10:39:21.723Z,-1.3
2017-08-23T10:40:21.175Z,-1.3
2017-08-23T10:41:20.234Z,-1.2
2017-08-23T10:42:19.963Z,-1
2017-08-23T10:43:19.035Z,-1
2017-08-23T10:44:17.990Z,-0.9
2017-08-23T10:45:17.447Z,-0.9
2017-08-23T10:46:16.910Z,-1
2017-08-23T10:47:16.090Z,-1.1
2017-08-23T10:49:15.057Z,-1.1
2017-08-23T10:50:14.255Z,-1.1
2017-08-23T10:51:13.439Z,-1.2
2017-08-23T10:52:12.901Z,-1.2
2017-08-23T10:53:11.989Z,-1.2
2017-08-23T10:54:11.568Z,-1.3
2017-08-23T10:55:10.520Z,-1.3
2017-08-23T10:56:10.214Z,-1.3
2017-08-23T10:57:09.405Z,-1.3
2017-08-23T10:58:08.359Z,-1.3
2017-08-23T10:59:08.046Z,-1.2
2017-08-23T11:00:07.249Z,-1.2
2017-08-23T11:01:06.830Z,-1.3
2017-08-23T11:02:05.891Z,-1.5
2017-08-23T11:03:05.360Z,-1.5
2017-08-23T11:04:04.323Z,-1.6
2017-08-23T11:05:04.011Z,-1.6
2017-08-23T11:06:02.956Z,-1.6
2017-08-23T11:07:02.319Z,-1.6
2017-08-23T11:08:01.885Z,-1.5
2017-08-23T11:09:00.954Z,-1.3
2017-08-23T11:10:00.553Z,-1.1
2017-08-23T11:10:59.753Z,-1.1
2017-08-23T11:11:59.442Z,-1
2017-08-23T11:12:58.528Z,-1
2017-08-23T11:13:57.606Z,-0.9
2017-08-23T11:14:57.289Z,-0.8
2017-08-23T11:15:56.474Z,-0.8
2017-08-23T11:17:55.045Z,-0.9
2017-08-23T11:18:54.229Z,-0.9
2017-08-23T11:19:53.923Z,-1
2017-08-23T11:20:24.439Z,-1
2017-08-23T11:20:54.806Z,-0.9
2017-08-23T11:21:52.365Z,-0.9
2017-08-23T11:22:51.448Z,-0.8
2017-08-23T11:25:49.810Z,-0.8
2017-08-23T11:26:48.874Z,-0.7
2017-08-23T11:27:48.206Z,-0.8
2017-08-23T11:28:47.789Z,-0.8
2017-08-23T11:29:46.863Z,-0.8
2017-08-23T11:30:46.430Z,-0.7
2017-08-23T11:31:45.390Z,-0.7
2017-08-23T11:32:44.973Z,-0.8
2017-08-23T11:33:44.041Z,-0.7
2017-08-23T11:34:43.732Z,-0.7
2017-08-23T11:36:42.303Z,-0.5
2017-08-23T11:37:41.877Z,-0.5
2017-08-23T11:38:41.062Z,-0.6
2017-08-23T11:39:40.119Z,-0.5
2017-08-23T11:40:39.584Z,-0.6
2017-08-23T11:41:39.160Z,-0.6
2017-08-23T11:43:37.749Z,-0.5
2017-08-23T11:44:36.589Z,-0.4
2017-08-23T11:46:35.328Z,-0.3
2017-08-23T11:47:35.026Z,-0.2
2017-08-23T11:48:34.711Z,-0.3
2017-08-23T11:49:33.785Z,-0.2
2017-08-23T11:50:32.974Z,0
2017-08-23T11:51:32.425Z,0.1
2017-08-23T11:53:31.439Z,0.2
2017-08-23T11:54:30.148Z,0.2
2017-08-23T11:55:29.732Z,0.4
2017-08-23T11:56:29.192Z,0.5
2017-08-23T11:57:28.251Z,0.6
2017-08-23T11:58:28.108Z,0.6
2017-08-23T11:59:27.207Z,0.7
2017-08-23T12:00:26.885Z,0.8
2017-08-23T12:01:25.960Z,0.7
2017-08-23T12:02:25.154Z,0.7
2017-08-23T12:04:24.123Z,1.1
2017-08-23T12:05:23.190Z,1.2
2017-08-23T12:06:22.769Z,1.2
2017-08-23T12:07:21.948Z,1.3
2017-08-23T12:08:21.516Z,1.2
2017-08-23T12:09:20.711Z,1.3
2017-08-23T12:10:20.404Z,1.3
2017-08-23T12:11:19.594Z,1.4
2017-08-23T12:12:18.670Z,1.4
2017-08-23T12:13:18.246Z,1.3
2017-08-23T12:14:17.702Z,1.2
2017-08-23T12:15:16.902Z,1.3
2017-08-23T12:16:16.262Z,1.4
2017-08-23T12:17:15.840Z,1.5
2017-08-23T12:18:14.914Z,1.6
2017-08-23T12:19:14.502Z,1.6
2017-08-23T12:20:13.557Z,1.7
2017-08-23T12:21:13.118Z,1.9
2017-08-23T12:22:12.827Z,2
2017-08-23T12:23:12.012Z,2.1
2017-08-23T12:24:11.094Z,2
2017-08-23T12:25:10.302Z,2.1
2017-08-23T12:26:09.982Z,2.1
2017-08-23T12:27:09.674Z,2.2
2017-08-23T12:28:08.858Z,2.3
2017-08-23T12:29:08.041Z,2.2
2017-08-23T12:30:07.622Z,2.2
2017-08-23T12:31:06.822Z,2.2
2017-08-23T12:33:05.948Z,2.5
2017-08-23T12:34:05.124Z,2.4
2017-08-23T12:35:04.326Z,2.6
2017-08-23T12:36:04.004Z,2.5
2017-08-23T12:37:03.223Z,2.4
2017-08-23T12:38:02.796Z,2.5
2017-08-23T12:39:01.980Z,2.4
2017-08-23T12:40:01.566Z,2.4
2017-08-23T12:41:00.753Z,2.4
2017-08-23T12:42:00.437Z,2.4
2017-08-23T12:42:59.619Z,2.4
2017-08-23T12:43:58.565Z,2.4
2017-08-23T12:44:58.454Z,2.5
2017-08-23T12:45:57.642Z,2.3
2017-08-23T12:46:57.318Z,2.4
2017-08-23T12:47:56.536Z,2.5
2017-08-23T12:48:56.108Z,2.9
2017-08-23T12:49:54.929Z,2.7
2017-08-23T12:50:54.499Z,2.6
2017-08-23T12:51:53.840Z,2.5
2017-08-23T12:52:53.300Z,2.6
2017-08-23T12:53:52.996Z,2.7
2017-08-23T12:54:52.069Z,2.6
2017-08-23T12:55:51.762Z,2.7
2017-08-23T12:56:50.966Z,2.7
2017-08-23T12:57:50.401Z,2.6
2017-08-23T12:58:49.859Z,2.6
2017-08-23T12:59:49.446Z,2.6
2017-08-23T13:00:48.522Z,2.2
2017-08-23T13:01:48.221Z,2.3
2017-08-23T13:02:47.284Z,2.3
2017-08-23T13:03:46.851Z,2.4
2017-08-23T13:04:46.419Z,2.4
2017-08-23T13:05:45.868Z,2.5
2017-08-23T13:06:44.934Z,2.6
2017-08-23T13:07:44.259Z,2.6
2017-08-23T13:08:15.269Z,2.6
2017-08-23T13:08:45.652Z,2.5
2017-08-23T13:09:16.051Z,2.5
2017-08-23T13:12:41.701Z,2.9
2017-08-23T13:13:40.791Z,3
2017-08-23T13:14:40.822Z,3
2017-08-23T13:15:39.882Z,2.9
2017-08-23T13:16:38.947Z,2.8
2017-08-23T13:17:38.623Z,2.8
2017-08-23T13:18:38.209Z,3
2017-08-23T13:19:37.289Z,3
2017-08-23T13:20:37.424Z,3
2017-08-23T13:21:36.373Z,3.1
2017-08-23T13:22:35.804Z,3.2
2017-08-23T13:23:34.867Z,3.2
2017-08-23T13:24:34.437Z,3.1
2017-08-23T13:25:33.990Z,3
2017-08-23T13:26:33.674Z,3.1
2017-08-23T13:27:32.868Z,3.2
2017-08-23T13:28:32.509Z,3.3
2017-08-23T13:29:31.653Z,3.3
2017-08-23T13:30:31.333Z,3.2
2017-08-23T13:31:30.536Z,3.3
2017-08-23T13:32:30.107Z,3.6
2017-08-23T13:33:29.297Z,3.8
2017-08-23T13:34:29.571Z,3.8
2017-08-23T13:35:28.151Z,3.7
2017-08-23T13:36:27.715Z,3.8
2017-08-23T13:37:26.782Z,3.9
2017-08-23T13:38:26.468Z,3.9
2017-08-23T13:39:26.036Z,4.1
2017-08-23T13:40:25.224Z,3.9
2017-08-23T13:41:24.926Z,3.8
2017-08-23T13:42:23.877Z,4
2017-08-23T13:43:23.605Z,3.8
2017-08-23T13:44:23.291Z,3.8
2017-08-23T13:45:22.356Z,3.6
2017-08-23T13:46:22.045Z,3.3